sensor_id;sensor_type;location;lat;lon;timestamp;pressure;altitude;pressure_sealevel;temperature;humidity
71915;BME280;60387;49.994;14.660;2023-05-19T00:00:16;98479.31;;;15.40;41.81
71915;BME280;60387;49.994;14.660;2023-05-19T00:02:50;98467.91;;;15.38;41.68
71915;BME280;60387;49.994;14.660;2023-05-19T00:05:23;98466.91;;;15.34;41.96
71915;BME280;60387;49.994;14.660;2023-05-19T00:07:58;98468.84;;;15.34;41.67
71915;BME280;60387;49.994;14.660;2023-05-19T00:10:32;98458.81;;;15.29;41.82
71915;BME280;60387;49.994;14.660;2023-05-19T00:13:05;98473.00;;;15.31;42.00
71915;BME280;60387;49.994;14.660;2023-05-19T00:15:39;98462.06;;;15.31;41.97
71915;BME280;60387;49.994;14.660;2023-05-19T00:18:13;98457.00;;;15.25;42.03
71915;BME280;60387;49.994;14.660;2023-05-19T00:20:46;98457.81;;;15.25;42.18
71915;BME280;60387;49.994;14.660;2023-05-19T00:23:20;98458.47;;;15.22;42.23
71915;BME280;60387;49.994;14.660;2023-05-19T00:25:53;98444.31;;;15.20;42.22
71915;BME280;60387;49.994;14.660;2023-05-19T00:28:26;98451.69;;;15.20;42.15
71915;BME280;60387;49.994;14.660;2023-05-19T00:31:00;98439.47;;;15.17;42.20
71915;BME280;60387;49.994;14.660;2023-05-19T00:33:33;98443.63;;;15.15;42.60
71915;BME280;60387;49.994;14.660;2023-05-19T00:36:07;98445.56;;;15.14;42.39
71915;BME280;60387;49.994;14.660;2023-05-19T00:38:40;98440.72;;;15.11;42.27
71915;BME280;60387;49.994;14.660;2023-05-19T00:41:13;98442.97;;;15.09;42.82
71915;BME280;60387;49.994;14.660;2023-05-19T00:43:47;98448.25;;;15.06;42.79
71915;BME280;60387;49.994;14.660;2023-05-19T00:46:20;98454.81;;;15.05;42.74
71915;BME280;60387;49.994;14.660;2023-05-19T00:48:56;98448.38;;;15.01;42.75
71915;BME280;60387;49.994;14.660;2023-05-19T00:51:30;98449.19;;;15.01;43.13
71915;BME280;60387;49.994;14.660;2023-05-19T00:54:03;98442.22;;;14.95;43.18
71915;BME280;60387;49.994;14.660;2023-05-19T00:56:37;98444.81;;;14.92;43.03
71915;BME280;60387;49.994;14.660;2023-05-19T00:59:10;98443.16;;;14.91;43.29
71915;BME280;60387;49.994;14.660;2023-05-19T01:01:44;98441.06;;;14.88;43.19
71915;BME280;60387;49.994;14.660;2023-05-19T01:04:18;98433.19;;;14.86;43.19
71915;BME280;60387;49.994;14.660;2023-05-19T01:06:52;98425.94;;;14.82;44.16
71915;BME280;60387;49.994;14.660;2023-05-19T01:09:25;98431.19;;;14.78;44.52
71915;BME280;60387;49.994;14.660;2023-05-19T01:11:59;98429.94;;;14.76;45.35
71915;BME280;60387;49.994;14.660;2023-05-19T01:14:33;98433.59;;;14.71;44.35
71915;BME280;60387;49.994;14.660;2023-05-19T01:20:11;98437.53;;;14.65;44.85
71915;BME280;60387;49.994;14.660;2023-05-19T01:25:49;98432.84;;;14.57;45.45
71915;BME280;60387;49.994;14.660;2023-05-19T01:28:51;98426.56;;;14.57;46.87
71915;BME280;60387;49.994;14.660;2023-05-19T01:31:30;98421.06;;;14.48;47.54
71915;BME280;60387;49.994;14.660;2023-05-19T01:34:04;98428.56;;;14.43;45.76
71915;BME280;60387;49.994;14.660;2023-05-19T01:36:40;98416.63;;;14.39;45.90
71915;BME280;60387;49.994;14.660;2023-05-19T01:39:15;98418.88;;;14.37;45.99
71915;BME280;60387;49.994;14.660;2023-05-19T01:41:49;98428.34;;;14.39;45.96
71915;BME280;60387;49.994;14.660;2023-05-19T01:44:23;98431.72;;;14.36;45.99
71915;BME280;60387;49.994;14.660;2023-05-19T01:46:56;98419.31;;;14.30;46.12
71915;BME280;60387;49.994;14.660;2023-05-19T01:49:30;98416.88;;;14.29;45.77
71915;BME280;60387;49.994;14.660;2023-05-19T01:52:03;98428.78;;;14.33;46.07
71915;BME280;60387;49.994;14.660;2023-05-19T01:54:37;98425.88;;;14.29;45.80
71915;BME280;60387;49.994;14.660;2023-05-19T02:05:51;98423.56;;;14.23;45.85
71915;BME280;60387;49.994;14.660;2023-05-19T02:08:52;98420.34;;;14.21;45.75
71915;BME280;60387;49.994;14.660;2023-05-19T02:11:46;98425.28;;;14.19;45.52
71915;BME280;60387;49.994;14.660;2023-05-19T02:16:56;98420.72;;;14.14;46.32
71915;BME280;60387;49.994;14.660;2023-05-19T02:19:31;98440.09;;;14.13;46.09
71915;BME280;60387;49.994;14.660;2023-05-19T02:22:05;98430.13;;;14.08;46.83
71915;BME280;60387;49.994;14.660;2023-05-19T02:24:38;98432.84;;;14.08;46.16
71915;BME280;60387;49.994;14.660;2023-05-19T02:27:12;98434.28;;;14.06;46.98
71915;BME280;60387;49.994;14.660;2023-05-19T02:29:45;98429.44;;;14.03;45.93
71915;BME280;60387;49.994;14.660;2023-05-19T02:32:19;98427.00;;;14.01;47.43
71915;BME280;60387;49.994;14.660;2023-05-19T02:34:53;98429.84;;;13.96;47.16
71915;BME280;60387;49.994;14.660;2023-05-19T02:37:26;98421.38;;;13.84;48.66
71915;BME280;60387;49.994;14.660;2023-05-19T02:39:59;98424.72;;;13.81;49.15
71915;BME280;60387;49.994;14.660;2023-05-19T02:42:32;98419.91;;;13.78;48.09
71915;BME280;60387;49.994;14.660;2023-05-19T02:45:06;98416.16;;;13.74;48.07
71915;BME280;60387;49.994;14.660;2023-05-19T02:47:40;98413.03;;;13.67;48.84
71915;BME280;60387;49.994;14.660;2023-05-19T02:50:13;98419.38;;;13.63;49.65
71915;BME280;60387;49.994;14.660;2023-05-19T02:52:46;98407.03;;;13.57;49.09
71915;BME280;60387;49.994;14.660;2023-05-19T02:55:20;98409.94;;;13.47;49.50
71915;BME280;60387;49.994;14.660;2023-05-19T02:57:53;98403.78;;;13.41;49.33
71915;BME280;60387;49.994;14.660;2023-05-19T03:00:26;98403.41;;;13.34;49.15
71915;BME280;60387;49.994;14.660;2023-05-19T03:02:59;98405.50;;;13.37;49.42
71915;BME280;60387;49.994;14.660;2023-05-19T03:05:33;98397.44;;;13.32;49.65
71915;BME280;60387;49.994;14.660;2023-05-19T03:08:06;98390.56;;;13.35;49.64
71915;BME280;60387;49.994;14.660;2023-05-19T03:10:39;98386.03;;;13.30;49.30
71915;BME280;60387;49.994;14.660;2023-05-19T03:13:13;98385.75;;;13.32;49.02
71915;BME280;60387;49.994;14.660;2023-05-19T03:15:46;98393.09;;;13.31;48.85
71915;BME280;60387;49.994;14.660;2023-05-19T03:18:19;98387.34;;;13.33;48.36
71915;BME280;60387;49.994;14.660;2023-05-19T03:20:52;98387.66;;;13.31;48.77
71915;BME280;60387;49.994;14.660;2023-05-19T03:23:26;98394.41;;;13.34;48.70
71915;BME280;60387;49.994;14.660;2023-05-19T03:25:59;98386.03;;;13.30;48.18
71915;BME280;60387;49.994;14.660;2023-05-19T03:28:32;98389.88;;;13.29;48.16
71915;BME280;60387;49.994;14.660;2023-05-19T03:31:05;98387.34;;;13.33;49.12
71915;BME280;60387;49.994;14.660;2023-05-19T03:33:39;98380.09;;;13.28;48.45
71915;BME280;60387;49.994;14.660;2023-05-19T03:36:12;98401.47;;;13.35;48.85
71915;BME280;60387;49.994;14.660;2023-05-19T03:38:45;98398.25;;;13.33;48.74
71915;BME280;60387;49.994;14.660;2023-05-19T03:41:18;98408.31;;;13.32;48.38
71915;BME280;60387;49.994;14.660;2023-05-19T03:43:52;98405.09;;;13.30;48.75
71915;BME280;60387;49.994;14.660;2023-05-19T03:46:25;98399.66;;;13.30;48.29
71915;BME280;60387;49.994;14.660;2023-05-19T03:48:58;98397.44;;;13.32;48.24
71915;BME280;60387;49.994;14.660;2023-05-19T03:51:32;98398.75;;;13.35;49.20
71915;BME280;60387;49.994;14.660;2023-05-19T03:54:05;98403.69;;;13.33;48.96
71915;BME280;60387;49.994;14.660;2023-05-19T03:56:39;98407.41;;;13.37;48.84
71915;BME280;60387;49.994;14.660;2023-05-19T03:59:12;98403.28;;;13.39;48.45
71915;BME280;60387;49.994;14.660;2023-05-19T04:01:45;98407.22;;;13.47;48.51
71915;BME280;60387;49.994;14.660;2023-05-19T04:04:18;98409.41;;;13.58;48.47
71915;BME280;60387;49.994;14.660;2023-05-19T04:06:52;98396.59;;;13.72;48.58
71915;BME280;60387;49.994;14.660;2023-05-19T04:09:25;98399.41;;;13.94;48.18
71915;BME280;60387;49.994;14.660;2023-05-19T04:11:58;98399.38;;;14.65;48.14
71915;BME280;60387;49.994;14.660;2023-05-19T04:14:31;98397.09;;;15.50;47.41
71915;BME280;60387;49.994;14.660;2023-05-19T04:17:05;98384.09;;;16.37;45.99
71915;BME280;60387;49.994;14.660;2023-05-19T04:19:38;98403.91;;;17.14;45.31
71915;BME280;60387;49.994;14.660;2023-05-19T04:22:11;98403.22;;;17.71;44.27
71915;BME280;60387;49.994;14.660;2023-05-19T04:24:45;98403.13;;;18.17;43.61
71915;BME280;60387;49.994;14.660;2023-05-19T04:27:18;98399.00;;;18.52;42.14
71915;BME280;60387;49.994;14.660;2023-05-19T04:29:51;98395.22;;;18.77;42.65
71915;BME280;60387;49.994;14.660;2023-05-19T04:32:25;98408.22;;;19.01;41.13
71915;BME280;60387;49.994;14.660;2023-05-19T04:34:58;98393.84;;;19.16;41.63
71915;BME280;60387;49.994;14.660;2023-05-19T04:37:31;98400.84;;;19.25;41.05
71915;BME280;60387;49.994;14.660;2023-05-19T04:40:05;98399.38;;;19.28;40.64
71915;BME280;60387;49.994;14.660;2023-05-19T04:42:39;98397.25;;;19.13;40.38
71915;BME280;60387;49.994;14.660;2023-05-19T04:45:12;98403.84;;;18.88;40.44
71915;BME280;60387;49.994;14.660;2023-05-19T04:47:45;98406.75;;;18.71;40.47
71915;BME280;60387;49.994;14.660;2023-05-19T04:50:18;98406.81;;;18.62;41.64
71915;BME280;60387;49.994;14.660;2023-05-19T04:52:52;98407.63;;;18.63;41.51
71915;BME280;60387;49.994;14.660;2023-05-19T04:55:25;98404.19;;;18.66;41.03
71915;BME280;60387;49.994;14.660;2023-05-19T04:57:58;98408.34;;;18.72;41.79
71915;BME280;60387;49.994;14.660;2023-05-19T05:00:32;98409.59;;;18.74;42.12
71915;BME280;60387;49.994;14.660;2023-05-19T05:03:05;98415.94;;;18.87;41.85
71915;BME280;60387;49.994;14.660;2023-05-19T05:05:38;98413.91;;;18.96;41.57
71915;BME280;60387;49.994;14.660;2023-05-19T05:08:12;98416.66;;;18.96;41.28
71915;BME280;60387;49.994;14.660;2023-05-19T05:10:45;98399.84;;;18.97;41.81
71915;BME280;60387;49.994;14.660;2023-05-19T05:13:21;98407.63;;;18.95;41.70
71915;BME280;60387;49.994;14.660;2023-05-19T05:15:55;98400.16;;;18.84;40.12
71915;BME280;60387;49.994;14.660;2023-05-19T05:18:28;98394.75;;;18.75;40.70
71915;BME280;60387;49.994;14.660;2023-05-19T05:21:02;98403.44;;;18.77;41.36
71915;BME280;60387;49.994;14.660;2023-05-19T05:23:35;98385.56;;;18.71;40.74
71915;BME280;60387;49.994;14.660;2023-05-19T05:26:16;98394.53;;;18.80;41.12
71915;BME280;60387;49.994;14.660;2023-05-19T05:28:49;98394.09;;;18.90;40.15
71915;BME280;60387;49.994;14.660;2023-05-19T05:31:23;98397.69;;;19.03;40.98
71915;BME280;60387;49.994;14.660;2023-05-19T05:33:56;98397.25;;;19.13;40.52
71915;BME280;60387;49.994;14.660;2023-05-19T05:36:30;98401.00;;;19.08;40.08
71915;BME280;60387;49.994;14.660;2023-05-19T05:39:03;98394.03;;;19.11;40.02
71915;BME280;60387;49.994;14.660;2023-05-19T05:41:36;98388.81;;;19.18;40.75
71915;BME280;60387;49.994;14.660;2023-05-19T05:44:10;98389.44;;;19.35;40.05
71915;BME280;60387;49.994;14.660;2023-05-19T05:46:43;98388.63;;;19.35;39.85
71915;BME280;60387;49.994;14.660;2023-05-19T05:49:17;98391.84;;;19.37;39.34
71915;BME280;60387;49.994;14.660;2023-05-19T05:51:50;98387.03;;;19.34;39.35
71915;BME280;60387;49.994;14.660;2023-05-19T05:54:24;98392.53;;;19.34;39.11
71915;BME280;60387;49.994;14.660;2023-05-19T05:56:57;98377.28;;;19.24;39.33
71915;BME280;60387;49.994;14.660;2023-05-19T05:59:30;98391.25;;;19.31;39.43
71915;BME280;60387;49.994;14.660;2023-05-19T06:02:04;98383.81;;;19.32;39.40
71915;BME280;60387;49.994;14.660;2023-05-19T06:04:37;98396.19;;;19.38;39.47
71915;BME280;60387;49.994;14.660;2023-05-19T06:07:10;98393.44;;;19.38;39.15
71915;BME280;60387;49.994;14.660;2023-05-19T06:09:43;98386.69;;;19.35;39.04
71915;BME280;60387;49.994;14.660;2023-05-19T06:12:17;98387.72;;;19.31;38.85
71915;BME280;60387;49.994;14.660;2023-05-19T06:14:50;98380.97;;;19.28;39.24
71915;BME280;60387;49.994;14.660;2023-05-19T06:17:23;98383.72;;;19.28;39.17
71915;BME280;60387;49.994;14.660;2023-05-19T06:19:56;98388.19;;;19.33;38.83
71915;BME280;60387;49.994;14.660;2023-05-19T06:22:30;98391.72;;;19.33;39.19
71915;BME280;60387;49.994;14.660;2023-05-19T06:25:04;98394.13;;;19.35;38.91
71915;BME280;60387;49.994;14.660;2023-05-19T06:27:38;98405.13;;;19.47;39.04
71915;BME280;60387;49.994;14.660;2023-05-19T06:30:11;98399.19;;;19.57;38.79
71915;BME280;60387;49.994;14.660;2023-05-19T06:32:45;98390.47;;;19.55;38.79
71915;BME280;60387;49.994;14.660;2023-05-19T06:35:18;98401.72;;;19.74;38.72
71915;BME280;60387;49.994;14.660;2023-05-19T06:37:51;98405.94;;;19.83;38.54
71915;BME280;60387;49.994;14.660;2023-05-19T06:40:25;98403.53;;;19.93;37.75
71915;BME280;60387;49.994;14.660;2023-05-19T06:42:58;98405.38;;;20.01;37.42
71915;BME280;60387;49.994;14.660;2023-05-19T06:45:31;98397.22;;;19.93;37.68
71915;BME280;60387;49.994;14.660;2023-05-19T06:48:05;98408.81;;;20.10;37.22
71915;BME280;60387;49.994;14.660;2023-05-19T06:50:38;98412.03;;;20.24;37.59
71915;BME280;60387;49.994;14.660;2023-05-19T06:53:11;98400.75;;;20.41;36.99
71915;BME280;60387;49.994;14.660;2023-05-19T06:55:44;98406.53;;;20.52;36.58
71915;BME280;60387;49.994;14.660;2023-05-19T06:58:18;98407.19;;;20.61;36.84
71915;BME280;60387;49.994;14.660;2023-05-19T07:00:51;98401.66;;;20.73;36.32
71915;BME280;60387;49.994;14.660;2023-05-19T07:03:24;98407.81;;;20.82;36.70
71915;BME280;60387;49.994;14.660;2023-05-19T07:05:58;98412.50;;;20.93;35.27
71915;BME280;60387;49.994;14.660;2023-05-19T07:08:31;98395.34;;;20.72;35.17
71915;BME280;60387;49.994;14.660;2023-05-19T07:11:04;98413.28;;;20.94;36.17
71915;BME280;60387;49.994;14.660;2023-05-19T07:13:37;98416.44;;;21.08;35.60
71915;BME280;60387;49.994;14.660;2023-05-19T07:16:11;98414.88;;;21.22;36.02
71915;BME280;60387;49.994;14.660;2023-05-19T07:18:44;98413.66;;;21.35;34.92
71915;BME280;60387;49.994;14.660;2023-05-19T07:21:17;98406.59;;;21.38;34.86
71915;BME280;60387;49.994;14.660;2023-05-19T07:23:50;98408.25;;;21.54;33.96
71915;BME280;60387;49.994;14.660;2023-05-19T07:26:24;98420.63;;;21.76;34.34
71915;BME280;60387;49.994;14.660;2023-05-19T07:28:57;98413.41;;;21.87;34.39
71915;BME280;60387;49.994;14.660;2023-05-19T07:31:30;98425.16;;;21.84;33.95
71915;BME280;60387;49.994;14.660;2023-05-19T07:34:04;98424.53;;;21.90;34.56
71915;BME280;60387;49.994;14.660;2023-05-19T07:36:37;98411.47;;;21.87;33.85
71915;BME280;60387;49.994;14.660;2023-05-19T07:39:11;98428.44;;;21.89;34.39
71915;BME280;60387;49.994;14.660;2023-05-19T07:41:44;98423.72;;;21.90;34.47
71915;BME280;60387;49.994;14.660;2023-05-19T07:44:17;98422.72;;;22.13;34.36
71915;BME280;60387;49.994;14.660;2023-05-19T07:46:51;98422.59;;;22.25;34.61
71915;BME280;60387;49.994;14.660;2023-05-19T07:49:24;98419.78;;;22.06;33.43
71915;BME280;60387;49.994;14.660;2023-05-19T07:51:57;98424.63;;;21.94;33.02
71915;BME280;60387;49.994;14.660;2023-05-19T07:54:31;98419.22;;;21.82;34.04
71915;BME280;60387;49.994;14.660;2023-05-19T07:57:04;98422.13;;;21.58;33.96
71915;BME280;60387;49.994;14.660;2023-05-19T07:59:37;98422.19;;;21.46;34.07
71915;BME280;60387;49.994;14.660;2023-05-19T08:02:11;98411.25;;;21.49;34.46
71915;BME280;60387;49.994;14.660;2023-05-19T08:04:44;98418.88;;;21.40;34.34
71915;BME280;60387;49.994;14.660;2023-05-19T08:07:17;98401.91;;;21.38;34.42
71915;BME280;60387;49.994;14.660;2023-05-19T08:09:50;98409.81;;;21.24;34.51
71915;BME280;60387;49.994;14.660;2023-05-19T08:12:24;98404.75;;;21.57;34.76
71915;BME280;60387;49.994;14.660;2023-05-19T08:14:57;98401.06;;;21.65;34.30
71915;BME280;60387;49.994;14.660;2023-05-19T08:17:30;98406.81;;;21.91;34.71
71915;BME280;60387;49.994;14.660;2023-05-19T08:20:04;98409.78;;;22.17;34.07
71915;BME280;60387;49.994;14.660;2023-05-19T08:22:37;98403.94;;;22.38;33.80
71915;BME280;60387;49.994;14.660;2023-05-19T08:25:11;98397.69;;;22.56;33.42
71915;BME280;60387;49.994;14.660;2023-05-19T08:27:44;98401.97;;;22.73;33.80
71915;BME280;60387;49.994;14.660;2023-05-19T08:30:17;98396.81;;;22.90;33.13
71915;BME280;60387;49.994;14.660;2023-05-19T08:32:51;98412.81;;;23.00;32.50
71915;BME280;60387;49.994;14.660;2023-05-19T08:35:24;98397.81;;;23.01;32.96
71915;BME280;60387;49.994;14.660;2023-05-19T08:37:57;98396.97;;;23.16;32.88
71915;BME280;60387;49.994;14.660;2023-05-19T08:40:32;98403.47;;;23.27;31.98
71915;BME280;60387;49.994;14.660;2023-05-19T08:43:05;98404.56;;;23.23;32.77
71915;BME280;60387;49.994;14.660;2023-05-19T08:45:42;98404.94;;;23.21;32.67
71915;BME280;60387;49.994;14.660;2023-05-19T08:48:16;98407.91;;;23.32;32.26
71915;BME280;60387;49.994;14.660;2023-05-19T08:51:32;98398.63;;;23.43;32.32
71915;BME280;60387;49.994;14.660;2023-05-19T08:54:13;98407.78;;;23.47;32.12
71915;BME280;60387;49.994;14.660;2023-05-19T08:56:47;98398.16;;;23.60;32.09
71915;BME280;60387;49.994;14.660;2023-05-19T08:59:21;98398.44;;;23.55;32.08
71915;BME280;60387;49.994;14.660;2023-05-19T09:01:54;98389.28;;;23.51;32.36
71915;BME280;60387;49.994;14.660;2023-05-19T09:04:28;98376.06;;;23.19;32.15
71915;BME280;60387;49.994;14.660;2023-05-19T09:07:02;98380.53;;;22.85;32.29
71915;BME280;60387;49.994;14.660;2023-05-19T09:09:36;98374.72;;;22.52;33.17
71915;BME280;60387;49.994;14.660;2023-05-19T09:12:10;98373.22;;;22.39;33.06
71915;BME280;60387;49.994;14.660;2023-05-19T09:14:43;98365.53;;;22.29;33.53
71915;BME280;60387;49.994;14.660;2023-05-19T09:17:16;98367.34;;;22.41;34.03
71915;BME280;60387;49.994;14.660;2023-05-19T09:19:50;98364.75;;;22.48;33.93
71915;BME280;60387;49.994;14.660;2023-05-19T09:22:23;98377.44;;;22.33;33.85
71915;BME280;60387;49.994;14.660;2023-05-19T09:24:56;98369.66;;;22.39;34.17
71915;BME280;60387;49.994;14.660;2023-05-19T09:27:30;98366.66;;;22.44;33.86
71915;BME280;60387;49.994;14.660;2023-05-19T09:30:07;98364.25;;;22.42;34.04
71915;BME280;60387;49.994;14.660;2023-05-19T09:32:40;98364.94;;;22.39;33.88
71915;BME280;60387;49.994;14.660;2023-05-19T09:35:13;98362.66;;;22.41;33.41
71915;BME280;60387;49.994;14.660;2023-05-19T09:37:47;98365.13;;;22.46;33.84
71915;BME280;60387;49.994;14.660;2023-05-19T09:40:20;98359.47;;;22.58;34.49
71915;BME280;60387;49.994;14.660;2023-05-19T09:42:53;98361.47;;;22.61;33.92
71915;BME280;60387;49.994;14.660;2023-05-19T09:45:27;98358.28;;;22.78;34.16
71915;BME280;60387;49.994;14.660;2023-05-19T09:48:02;98360.31;;;22.81;33.96
71915;BME280;60387;49.994;14.660;2023-05-19T09:50:36;98368.38;;;22.90;34.00
71915;BME280;60387;49.994;14.660;2023-05-19T09:53:12;98350.72;;;22.75;34.00
71915;BME280;60387;49.994;14.660;2023-05-19T09:55:47;98367.72;;;22.77;33.87
71915;BME280;60387;49.994;14.660;2023-05-19T09:58:20;98352.75;;;22.78;33.28
71915;BME280;60387;49.994;14.660;2023-05-19T10:00:54;98354.56;;;22.90;33.94
71915;BME280;60387;49.994;14.660;2023-05-19T10:03:28;98365.47;;;23.02;33.97
71915;BME280;60387;49.994;14.660;2023-05-19T10:06:03;98366.38;;;23.09;33.61
71915;BME280;60387;49.994;14.660;2023-05-19T10:08:38;98355.44;;;23.35;33.24
71915;BME280;60387;49.994;14.660;2023-05-19T10:11:12;98342.91;;;23.41;32.37
71915;BME280;60387;49.994;14.660;2023-05-19T10:13:49;98338.53;;;23.40;33.33
71915;BME280;60387;49.994;14.660;2023-05-19T10:16:25;98357.88;;;23.18;32.88
71915;BME280;60387;49.994;14.660;2023-05-19T10:19:00;98362.88;;;23.12;32.67
71915;BME280;60387;49.994;14.660;2023-05-19T10:21:34;98363.41;;;22.99;33.00
71915;BME280;60387;49.994;14.660;2023-05-19T10:24:07;98351.72;;;22.86;33.63
71915;BME280;60387;49.994;14.660;2023-05-19T10:26:44;98350.88;;;22.82;33.65
71915;BME280;60387;49.994;14.660;2023-05-19T10:29:22;98342.16;;;22.80;33.56
71915;BME280;60387;49.994;14.660;2023-05-19T10:32:00;98329.94;;;22.81;33.47
71915;BME280;60387;49.994;14.660;2023-05-19T10:40:31;98329.16;;;23.22;34.00
71915;BME280;60387;49.994;14.660;2023-05-19T10:46:08;98328.16;;;23.56;34.04
71915;BME280;60387;49.994;14.660;2023-05-19T10:48:44;98339.38;;;23.44;34.06
71915;BME280;60387;49.994;14.660;2023-05-19T10:51:18;98326.34;;;23.67;33.98
71915;BME280;60387;49.994;14.660;2023-05-19T10:53:51;98330.22;;;23.62;33.69
71915;BME280;60387;49.994;14.660;2023-05-19T10:56:29;98321.75;;;23.78;33.92
71915;BME280;60387;49.994;14.660;2023-05-19T10:59:03;98328.22;;;23.85;33.65
71915;BME280;60387;49.994;14.660;2023-05-19T11:01:36;98350.19;;;23.75;33.55
71915;BME280;60387;49.994;14.660;2023-05-19T11:04:09;98336.53;;;23.63;33.37
71915;BME280;60387;49.994;14.660;2023-05-19T11:06:49;98324.78;;;23.44;33.57
71915;BME280;60387;49.994;14.660;2023-05-19T11:09:23;98325.25;;;23.49;34.49
71915;BME280;60387;49.994;14.660;2023-05-19T11:12:01;98324.63;;;23.59;34.40
71915;BME280;60387;49.994;14.660;2023-05-19T11:14:35;98327.59;;;23.73;33.83
71915;BME280;60387;49.994;14.660;2023-05-19T11:17:15;98327.22;;;23.74;33.92
71915;BME280;60387;49.994;14.660;2023-05-19T11:19:52;98327.19;;;23.71;33.98
71915;BME280;60387;49.994;14.660;2023-05-19T11:22:27;98322.94;;;23.77;34.20
71915;BME280;60387;49.994;14.660;2023-05-19T11:25:01;98320.91;;;23.74;34.42
71915;BME280;60387;49.994;14.660;2023-05-19T11:27:35;98324.69;;;23.62;34.02
71915;BME280;60387;49.994;14.660;2023-05-19T11:30:09;98327.34;;;23.33;34.34
71915;BME280;60387;49.994;14.660;2023-05-19T11:32:43;98317.97;;;23.15;35.00
71915;BME280;60387;49.994;14.660;2023-05-19T11:35:19;98310.00;;;23.14;34.83
71915;BME280;60387;49.994;14.660;2023-05-19T11:37:53;98308.22;;;23.02;35.40
71915;BME280;60387;49.994;14.660;2023-05-19T11:40:26;98310.53;;;23.00;34.92
71915;BME280;60387;49.994;14.660;2023-05-19T11:43:00;98311.38;;;23.23;35.21
71915;BME280;60387;49.994;14.660;2023-05-19T11:45:34;98316.16;;;23.48;34.87
71915;BME280;60387;49.994;14.660;2023-05-19T11:48:11;98311.19;;;23.35;34.90
71915;BME280;60387;49.994;14.660;2023-05-19T11:50:44;98315.31;;;23.70;34.76
71915;BME280;60387;49.994;14.660;2023-05-19T11:53:18;98307.50;;;23.76;34.38
71915;BME280;60387;49.994;14.660;2023-05-19T11:55:51;98325.47;;;24.11;34.55
71915;BME280;60387;49.994;14.660;2023-05-19T11:58:24;98333.22;;;24.02;33.93
71915;BME280;60387;49.994;14.660;2023-05-19T12:01:02;98315.06;;;24.05;33.83
71915;BME280;60387;49.994;14.660;2023-05-19T12:03:36;98317.44;;;23.80;33.93
71915;BME280;60387;49.994;14.660;2023-05-19T12:06:09;98307.81;;;23.71;34.81
71915;BME280;60387;49.994;14.660;2023-05-19T12:08:43;98318.56;;;23.76;34.68
71915;BME280;60387;49.994;14.660;2023-05-19T12:11:20;98314.34;;;23.59;34.90
71915;BME280;60387;49.994;14.660;2023-05-19T12:13:57;98312.63;;;23.51;34.86
71915;BME280;60387;49.994;14.660;2023-05-19T12:16:34;98320.09;;;23.48;34.84
71915;BME280;60387;49.994;14.660;2023-05-19T12:19:07;98320.78;;;23.19;35.69
71915;BME280;60387;49.994;14.660;2023-05-19T12:21:41;98306.66;;;23.24;35.43
71915;BME280;60387;49.994;14.660;2023-05-19T12:24:15;98322.31;;;23.16;35.19
71915;BME280;60387;49.994;14.660;2023-05-19T12:26:48;98319.97;;;23.18;35.75
71915;BME280;60387;49.994;14.660;2023-05-19T12:29:27;98319.16;;;23.18;35.65
71915;BME280;60387;49.994;14.660;2023-05-19T12:32:00;98314.38;;;23.15;35.54
71915;BME280;60387;49.994;14.660;2023-05-19T12:34:37;98306.31;;;23.06;36.09
71915;BME280;60387;49.994;14.660;2023-05-19T12:37:11;98295.75;;;23.12;36.02
71915;BME280;60387;49.994;14.660;2023-05-19T12:39:44;98302.88;;;23.13;35.73
71915;BME280;60387;49.994;14.660;2023-05-19T12:42:18;98300.34;;;23.23;35.53
71915;BME280;60387;49.994;14.660;2023-05-19T12:44:52;98304.34;;;23.29;35.90
71915;BME280;60387;49.994;14.660;2023-05-19T12:47:33;98303.06;;;23.46;35.51
71915;BME280;60387;49.994;14.660;2023-05-19T12:50:08;98313.03;;;23.50;35.84
71915;BME280;60387;49.994;14.660;2023-05-19T12:52:43;98300.78;;;23.51;35.78
71915;BME280;60387;49.994;14.660;2023-05-19T12:55:17;98303.38;;;23.41;36.19
71915;BME280;60387;49.994;14.660;2023-05-19T12:57:51;98275.81;;;23.22;36.03
71915;BME280;60387;49.994;14.660;2023-05-19T13:00:25;98306.63;;;23.46;36.04
71915;BME280;60387;49.994;14.660;2023-05-19T13:02:59;98304.34;;;23.51;35.82
71915;BME280;60387;49.994;14.660;2023-05-19T13:05:35;98307.09;;;23.51;35.72
71915;BME280;60387;49.994;14.660;2023-05-19T13:08:10;98290.53;;;23.29;35.80
71915;BME280;60387;49.994;14.660;2023-05-19T13:10:45;98308.06;;;23.14;36.23
71915;BME280;60387;49.994;14.660;2023-05-19T13:13:18;98291.50;;;22.95;36.36
71915;BME280;60387;49.994;14.660;2023-05-19T13:15:51;98288.84;;;23.02;36.02
71915;BME280;60387;49.994;14.660;2023-05-19T13:18:25;98282.16;;;23.03;36.54
71915;BME280;60387;49.994;14.660;2023-05-19T13:20:58;98284.78;;;22.96;36.27
71915;BME280;60387;49.994;14.660;2023-05-19T13:23:31;98288.56;;;23.07;36.24
71915;BME280;60387;49.994;14.660;2023-05-19T13:26:05;98290.75;;;23.17;36.42
71915;BME280;60387;49.994;14.660;2023-05-19T13:28:38;98288.81;;;23.21;36.25
71915;BME280;60387;49.994;14.660;2023-05-19T13:31:11;98287.56;;;23.15;36.70
71915;BME280;60387;49.994;14.660;2023-05-19T13:33:44;98295.56;;;23.01;37.21
71915;BME280;60387;49.994;14.660;2023-05-19T13:36:18;98289.22;;;22.78;37.26
71915;BME280;60387;49.994;14.660;2023-05-19T13:38:51;98279.53;;;22.46;37.58
71915;BME280;60387;49.994;14.660;2023-05-19T13:41:24;98289.97;;;22.56;36.97
71915;BME280;60387;49.994;14.660;2023-05-19T13:43:58;98283.44;;;22.45;38.00
71915;BME280;60387;49.994;14.660;2023-05-19T13:46:31;98285.59;;;22.36;37.67
71915;BME280;60387;49.994;14.660;2023-05-19T13:49:04;98285.59;;;22.36;37.89
71915;BME280;60387;49.994;14.660;2023-05-19T13:51:40;98280.31;;;22.28;38.34